Time;durP1;ratioP1;P1;durP2;ratioP2;P2;SDS_P1;SDS_P2;PMS_P1;PMS_P2;Temp;Humidity;BMP_temperature;BMP_pressure;BME280_temperature;BME280_humidity;BME280_pressure;Samples;Min_cycle;Max_cycle;Signal;HPM_P1;HPM_P2
2021/10/05 00:00:53;;;;;;;2.55;1.15;;;13.50;90.90;;;;;;5035787;28;20064;-89
2021/10/05 00:03:32;;;;;;;2.88;1.23;;;13.60;90.80;;;;;;5052441;28;20040;-89
2021/10/05 00:06:01;;;;;;;3.78;1.40;;;13.50;90.80;;;;;;5022628;28;20478;-89
2021/10/05 00:08:26;;;;;;;3.50;0.90;;;13.50;90.80;;;;;;5042643;28;20022;-89
2021/10/05 00:10:58;;;;;;;5.45;1.17;;;13.50;90.80;;;;;;5035542;28;20111;-89
2021/10/05 00:13:24;;;;;;;2.70;1.10;;;13.40;90.80;;;;;;5052952;28;20025;-89
2021/10/05 00:15:50;;;;;;;3.25;1.27;;;13.40;90.90;;;;;;5018294;28;20367;-89
2021/10/05 00:18:27;;;;;;;3.45;1.15;;;13.30;90.80;;;;;;5032941;28;20443;-91
2021/10/05 00:21:03;;;;;;;2.60;1.50;;;13.40;90.90;;;;;;5017853;28;20028;-88
2021/10/05 00:23:34;;;;;;;2.28;1.13;;;13.30;91.00;;;;;;5040067;28;20815;-89
2021/10/05 00:26:00;;;;;;;;;;;13.30;91.00;;;;;;5037038;28;20026;-90
2021/10/05 00:28:29;;;;;;;3.38;1.10;;;13.30;91.10;;;;;;5045580;28;19955;-90
2021/10/05 00:30:54;;;;;;;3.42;1.50;;;13.20;91.10;;;;;;5036982;28;20025;-90
2021/10/05 00:33:27;;;;;;;3.97;1.33;;;13.20;91.20;;;;;;5018862;28;20068;-90
2021/10/05 00:36:02;;;;;;;3.60;1.10;;;13.20;91.20;;;;;;5033018;28;20085;-90
2021/10/05 00:38:34;;;;;;;2.85;1.05;;;13.20;91.20;;;;;;5034522;28;20578;-90
2021/10/05 00:41:02;;;;;;;4.90;1.88;;;13.10;91.30;;;;;;5024988;28;20073;-88
2021/10/05 00:43:36;;;;;;;6.95;1.70;;;13.10;91.30;;;;;;5012129;28;20061;-88
2021/10/05 00:46:04;;;;;;;3.17;1.50;;;13.10;91.40;;;;;;5036444;28;20436;-88
2021/10/05 00:48:42;;;;;;;5.85;1.50;;;13.10;91.40;;;;;;5018976;28;20026;-88
2021/10/05 00:51:14;;;;;;;2.95;1.33;;;13.10;91.40;;;;;;5015951;28;20037;-88
2021/10/05 00:53:49;;;;;;;4.25;1.00;;;13.10;91.30;;;;;;5032080;28;20056;-88
2021/10/05 00:56:24;;;;;;;3.78;1.30;;;13.00;91.40;;;;;;5040324;28;20048;-88
2021/10/05 00:58:55;;;;;;;4.40;1.48;;;13.10;91.40;;;;;;5036676;28;20465;-88
2021/10/05 01:01:24;;;;;;;2.78;1.52;;;13.00;91.50;;;;;;5026406;28;20112;-89
2021/10/05 01:03:53;;;;;;;3.90;1.50;;;13.00;91.50;;;;;;5048275;28;20060;-88
2021/10/05 01:06:28;;;;;;;3.28;1.10;;;13.00;91.50;;;;;;5029185;28;20109;-88
2021/10/05 01:09:05;;;;;;;5.03;1.10;;;13.00;91.50;;;;;;5015059;28;20021;-88
2021/10/05 01:11:31;;;;;;;2.42;1.00;;;13.00;91.50;;;;;;5035903;28;20034;-88
2021/10/05 01:14:06;;;;;;;3.83;1.23;;;13.10;91.60;;;;;;4999799;28;20041;-88
2021/10/05 01:16:34;;;;;;;3.13;1.00;;;13.10;91.70;;;;;;5015926;28;20014;-88
2021/10/05 01:19:00;;;;;;;4.05;1.10;;;13.00;91.60;;;;;;5026108;28;20025;-87
2021/10/05 01:21:29;;;;;;;3.45;1.10;;;13.00;91.60;;;;;;5026019;28;20557;-90
2021/10/05 01:27:53;;;;;;;2.33;1.25;;;13.00;91.80;;;;;;4998922;28;20454;-87
2021/10/05 01:30:23;;;;;;;3.40;1.20;;;12.90;91.90;;;;;;5045602;28;20045;-89
2021/10/05 01:32:49;;;;;;;3.90;1.10;;;12.90;91.80;;;;;;5035956;28;20029;-88
2021/10/05 01:35:20;;;;;;;5.30;1.65;;;12.90;91.90;;;;;;5029921;28;20025;-91
2021/10/05 01:37:51;;;;;;;2.97;1.20;;;12.90;92.10;;;;;;5011210;28;20132;-91
2021/10/05 01:40:24;;;;;;;2.88;1.10;;;12.90;92.10;;;;;;5012000;28;20037;-87
2021/10/05 01:42:59;;;;;;;2.42;1.27;;;12.90;92.10;;;;;;5034944;28;20116;-87
2021/10/05 01:45:44;;;;;;;5.55;1.27;;;12.90;92.10;;;;;;5020888;28;20361;-86
2021/10/05 01:48:33;;;;;;;2.70;0.90;;;12.90;92.20;;;;;;5044690;28;20122;-86
2021/10/05 01:50:59;;;;;;;3.33;1.08;;;12.90;92.20;;;;;;5025740;28;20128;-85
2021/10/05 01:53:31;;;;;;;3.63;1.15;;;12.90;92.30;;;;;;5062283;22;20082;-90
2021/10/05 01:55:56;;;;;;;3.88;1.45;;;12.80;92.30;;;;;;5059515;28;20016;-91
2021/10/05 01:58:22;;;;;;;4.43;1.30;;;12.80;92.40;;;;;;5042196;28;20470;-90
2021/10/05 02:01:01;;;;;;;2.63;1.13;;;12.80;92.30;;;;;;5059164;28;20025;-90
2021/10/05 02:03:36;;;;;;;4.13;1.42;;;12.80;92.50;;;;;;5054699;28;20051;-89
2021/10/05 02:06:07;;;;;;;4.75;1.38;;;12.70;92.50;;;;;;5041244;28;20117;-86
2021/10/05 02:08:33;;;;;;;4.53;1.70;;;12.80;92.60;;;;;;5041815;28;20083;-86
2021/10/05 02:10:59;;;;;;;2.15;1.20;;;12.80;92.50;;;;;;5058450;28;20037;-86
2021/10/05 02:13:25;;;;;;;3.17;1.48;;;12.80;92.60;;;;;;5041325;28;20032;-87
2021/10/05 02:16:03;;;;;;;2.47;1.10;;;12.70;92.60;;;;;;5041169;28;20033;-86
2021/10/05 02:18:39;;;;;;;5.80;1.50;;;12.70;92.70;;;;;;5058276;28;20024;-86
2021/10/05 02:21:07;;;;;;;4.82;1.45;;;12.70;92.70;;;;;;5061694;28;20025;-86
2021/10/05 02:26:21;;;;;;;5.30;1.38;;;12.70;92.80;;;;;;5079574;28;20397;-87
2021/10/05 02:28:49;;;;;;;2.72;1.30;;;12.60;92.70;;;;;;5053227;28;20013;-87
2021/10/05 02:31:15;;;;;;;2.63;1.10;;;12.70;92.80;;;;;;5050228;28;20063;-86
2021/10/05 02:33:46;;;;;;;2.83;1.40;;;12.60;92.80;;;;;;5059723;28;20025;-86
2021/10/05 02:36:20;;;;;;;;;;;12.60;92.90;;;;;;5061417;28;20029;-87
2021/10/05 02:38:52;;;;;;;3.70;1.17;;;12.60;93.10;;;;;;5059037;28;19905;-90
2021/10/05 02:41:24;;;;;;;2.42;1.30;;;12.60;93.00;;;;;;5054586;28;20071;-90
2021/10/05 02:43:53;;;;;;;2.97;1.25;;;12.60;93.10;;;;;;5055873;28;20035;-89
2021/10/05 02:46:19;;;;;;;2.42;1.13;;;12.60;93.20;;;;;;5049384;28;20033;-86
2021/10/05 02:48:45;;;;;;;2.15;1.23;;;12.60;93.20;;;;;;5054857;28;20021;-86
2021/10/05 02:51:13;;;;;;;2.15;1.15;;;12.60;93.20;;;;;;5073898;28;20035;-87
2021/10/05 02:53:39;;;;;;;3.92;1.33;;;12.60;93.30;;;;;;5057400;28;20493;-87
2021/10/05 02:56:05;;;;;;;3.72;1.20;;;12.60;93.30;;;;;;5052343;28;20083;-86
2021/10/05 02:58:33;;;;;;;2.60;1.15;;;12.60;93.20;;;;;;5054188;28;20032;-86
2021/10/05 03:01:01;;;;;;;2.30;1.20;;;12.60;93.30;;;;;;5054315;28;20020;-87
2021/10/05 03:03:30;;;;;;;3.15;1.67;;;12.60;93.40;;;;;;5054680;28;20553;-86
2021/10/05 03:05:56;;;;;;;3.28;1.50;;;12.60;93.30;;;;;;5051669;28;20490;-86
2021/10/05 03:08:28;;;;;;;1.73;1.08;;;12.60;93.30;;;;;;5053561;28;20021;-86
2021/10/05 03:10:58;;;;;;;3.25;1.33;;;12.50;93.40;;;;;;5068088;28;20032;-86
2021/10/05 03:13:30;;;;;;;2.70;1.58;;;12.50;93.80;;;;;;5049357;28;20036;-86
2021/10/05 03:16:20;;;;;;;2.53;1.48;;;12.50;93.50;;;;;;5051055;28;20366;-86
2021/10/05 03:18:49;;;;;;;3.50;1.30;;;12.50;93.60;;;;;;5047989;28;20016;-86
2021/10/05 03:21:19;;;;;;;3.13;1.38;;;12.50;93.50;;;;;;5057029;28;20470;-86
2021/10/05 03:23:47;;;;;;;4.13;1.63;;;12.50;93.60;;;;;;5044481;28;20027;-86
2021/10/05 03:26:14;;;;;;;2.80;1.50;;;12.50;93.60;;;;;;5072173;28;20024;-86
2021/10/05 03:28:42;;;;;;;6.57;1.70;;;12.50;93.70;;;;;;5042529;28;20082;-86
2021/10/05 03:31:29;;;;;;;3.05;1.58;;;12.40;93.70;;;;;;5060871;28;20465;-85
2021/10/05 03:34:04;;;;;;;3.35;1.52;;;12.40;93.80;;;;;;5047125;28;20020;-85
2021/10/05 03:36:35;;;;;;;3.38;1.48;;;12.40;93.80;;;;;;5058496;28;20025;-91
2021/10/05 03:39:04;;;;;;;3.60;1.55;;;12.40;93.90;;;;;;5053989;28;20025;-90
2021/10/05 03:41:32;;;;;;;3.22;1.60;;;12.40;93.90;;;;;;5070128;28;20025;-90
2021/10/05 03:43:58;;;;;;;2.22;1.55;;;12.40;93.90;;;;;;5053362;28;20569;-91
2021/10/05 03:46:29;;;;;;;2.50;1.40;;;12.40;94.00;;;;;;5054368;28;20199;-91
2021/10/05 03:48:55;;;;;;;4.15;1.88;;;12.40;94.00;;;;;;5071453;28;20037;-91
2021/10/05 03:51:24;;;;;;;2.22;1.23;;;12.40;94.20;;;;;;5039384;28;20040;-91
2021/10/05 03:53:50;;;;;;;3.25;1.50;;;12.40;94.00;;;;;;5057072;28;20040;-91
2021/10/05 03:56:18;;;;;;;2.92;1.40;;;12.40;94.10;;;;;;5028032;28;20021;-90
2021/10/05 03:58:44;;;;;;;2.55;1.30;;;12.40;94.00;;;;;;5018007;28;20509;-90
2021/10/05 04:01:10;;;;;;;3.38;1.50;;;12.40;94.00;;;;;;5052746;28;20029;-90
2021/10/05 04:03:36;;;;;;;4.25;1.40;;;12.40;94.10;;;;;;5033039;28;20026;-91
2021/10/05 04:06:01;;;;;;;2.42;1.67;;;12.30;94.00;;;;;;5019236;28;20041;-90
2021/10/05 04:08:28;;;;;;;3.47;1.58;;;12.30;94.00;;;;;;5064276;28;20021;-90
2021/10/05 04:10:59;;;;;;;4.60;1.50;;;12.30;94.10;;;;;;5059005;28;20154;-90
2021/10/05 04:13:25;;;;;;;3.20;1.55;;;12.30;94.20;;;;;;5056759;28;20025;-90
2021/10/05 04:15:54;;;;;;;4.18;1.45;;;12.30;94.10;;;;;;5058682;28;20051;-90
2021/10/05 04:18:22;;;;;;;2.20;1.40;;;12.30;94.10;;;;;;5064404;28;20017;-90
2021/10/05 04:23:39;;;;;;;3.90;1.65;;;12.20;94.20;;;;;;5055053;28;20040;-90
2021/10/05 04:26:07;;;;;;;2.50;1.50;;;12.30;94.20;;;;;;5032994;28;20029;-91
2021/10/05 04:28:39;;;;;;;5.43;1.50;;;12.20;94.60;;;;;;5006980;28;20041;-89
2021/10/05 04:31:05;;;;;;;5.20;2.38;;;12.20;94.40;;;;;;5044854;28;20037;-86
2021/10/05 04:33:35;;;;;;;3.65;1.55;;;12.20;94.40;;;;;;5054196;28;20091;-86
2021/10/05 04:36:01;;;;;;;4.15;2.03;;;12.20;94.40;;;;;;5053965;28;20389;-86
2021/10/05 04:38:26;;;;;;;5.57;1.63;;;12.10;94.40;;;;;;5067178;28;20017;-86
2021/10/05 04:40:55;;;;;;;3.92;1.88;;;12.20;94.40;;;;;;5043234;28;20028;-86
2021/10/05 04:43:20;;;;;;;4.07;1.95;;;12.20;94.50;;;;;;5046319;28;20153;-86
2021/10/05 04:45:46;;;;;;;4.10;1.90;;;12.20;94.60;;;;;;5052333;28;20025;-85
2021/10/05 04:48:23;;;;;;;3.28;1.85;;;12.20;94.50;;;;;;5072644;28;20386;-86
2021/10/05 04:50:49;;;;;;;4.85;2.03;;;12.20;94.50;;;;;;5072505;28;20088;-87
2021/10/05 04:53:24;;;;;;;4.30;2.65;;;12.20;94.60;;;;;;5035219;28;20044;-85
2021/10/05 04:55:50;;;;;;;3.20;1.60;;;12.20;94.60;;;;;;5059668;28;20107;-86
2021/10/05 04:58:21;;;;;;;4.28;2.17;;;12.20;94.60;;;;;;5043179;28;20538;-86
2021/10/05 05:01:02;;;;;;;;;;;;;;;;;;;;;
2021/10/05 05:03:32;;;;;;;6.38;2.35;;;12.20;94.50;;;;;;5070357;28;20029;-87
2021/10/05 05:06:03;;;;;;;4.38;2.00;;;12.20;94.60;;;;;;5065477;28;20060;-86
2021/10/05 05:08:32;;;;;;;5.05;2.38;;;12.10;94.60;;;;;;5061830;28;20021;-87
2021/10/05 05:11:01;;;;;;;4.93;2.13;;;12.20;94.60;;;;;;5052782;28;20032;-86
2021/10/05 05:13:27;;;;;;;5.43;2.47;;;12.10;94.70;;;;;;5051394;28;20374;-86
2021/10/05 05:16:02;;;;;;;3.67;2.30;;;12.20;94.70;;;;;;5051317;28;20117;-86
2021/10/05 05:18:27;;;;;;;5.95;2.50;;;12.10;94.70;;;;;;5035367;28;20032;-85
2021/10/05 05:20:54;;;;;;;3.00;2.20;;;12.10;94.70;;;;;;5068210;28;20037;-86
2021/10/05 05:23:19;;;;;;;5.47;2.67;;;12.20;94.80;;;;;;5034789;28;20033;-85
2021/10/05 05:25:45;;;;;;;6.97;2.83;;;12.10;94.80;;;;;;5057343;28;20066;-85
2021/10/05 05:28:11;;;;;;;7.10;2.75;;;12.10;94.90;;;;;;5034453;28;20112;-85
2021/10/05 05:30:40;;;;;;;4.38;3.08;;;12.10;94.80;;;;;;5050804;28;20124;-86
2021/10/05 05:33:12;;;;;;;6.03;3.10;;;12.10;94.80;;;;;;5050795;28;20136;-85
2021/10/05 05:35:37;;;;;;;7.13;3.20;;;12.10;94.80;;;;;;5051836;28;20017;-85
2021/10/05 05:38:03;;;;;;;5.90;2.90;;;12.10;94.90;;;;;;5052528;28;20082;-88
2021/10/05 05:40:32;;;;;;;6.03;3.50;;;12.10;94.80;;;;;;5052397;28;20021;-88
2021/10/05 05:43:00;;;;;;;7.40;3.33;;;12.10;94.90;;;;;;5054816;28;20025;-88
2021/10/05 05:45:33;;;;;;;6.00;3.05;;;12.00;94.90;;;;;;5053055;28;20024;-88
2021/10/05 05:47:59;;;;;;;6.20;3.30;;;12.00;94.90;;;;;;5066999;28;20023;-87
2021/10/05 05:50:25;;;;;;;5.38;3.60;;;12.00;95.00;;;;;;5071524;28;20479;-87
2021/10/05 05:52:51;;;;;;;5.05;3.08;;;12.00;95.00;;;;;;5071003;28;20052;-88
2021/10/05 05:55:17;;;;;;;6.10;3.15;;;11.90;95.00;;;;;;5067110;28;20025;-85
2021/10/05 05:57:47;;;;;;;8.70;4.35;;;11.90;95.10;;;;;;5054736;28;20051;-85
2021/10/05 06:00:14;;;;;;;4.18;3.00;;;11.80;95.10;;;;;;5057327;28;20082;-85
2021/10/05 06:03:01;;;;;;;6.65;3.75;;;11.90;95.20;;;;;;5066574;28;20028;-84
2021/10/05 06:05:27;;;;;;;5.68;3.20;;;11.90;95.30;;;;;;5054009;28;20083;-85
2021/10/05 06:07:53;;;;;;;6.72;4.00;;;11.90;95.20;;;;;;5053982;28;20017;-85
2021/10/05 06:10:19;;;;;;;6.50;3.58;;;11.90;95.30;;;;;;5068034;28;20017;-85
2021/10/05 06:12:44;;;;;;;6.28;4.28;;;11.90;95.50;;;;;;5044258;28;20449;-84
2021/10/05 06:15:15;;;;;;;6.05;3.92;;;11.80;95.40;;;;;;5057214;28;20450;-85
2021/10/05 06:17:42;;;;;;;;;;;11.80;95.40;;;;;;5061495;28;20025;-84
2021/10/05 06:20:16;;;;;;;7.95;4.47;;;11.80;95.50;;;;;;5074040;28;19905;-85
2021/10/05 06:22:43;;;;;;;7.32;4.00;;;11.80;95.60;;;;;;5073813;28;20020;-84
2021/10/05 06:25:11;;;;;;;10.93;4.97;;;11.80;95.60;;;;;;5073653;28;20016;-85
2021/10/05 06:27:37;;;;;;;7.57;4.03;;;11.70;95.60;;;;;;5070611;28;20025;-84
2021/10/05 06:30:04;;;;;;;7.38;4.47;;;11.80;95.50;;;;;;5051015;28;20465;-85
2021/10/05 06:32:30;;;;;;;5.70;4.32;;;11.70;95.50;;;;;;5063185;28;20040;-85
2021/10/05 06:35:04;;;;;;;6.18;4.47;;;11.70;95.60;;;;;;5060570;28;20033;-88
2021/10/05 06:37:30;;;;;;;9.52;5.28;;;11.70;95.70;;;;;;5074744;28;20112;-88
2021/10/05 06:39:56;;;;;;;7.47;4.65;;;11.70;95.90;;;;;;5060649;28;20505;-89
2021/10/05 06:42:21;;;;;;;6.57;4.97;;;11.70;95.80;;;;;;5074366;28;20025;-89
2021/10/05 06:44:47;;;;;;;7.38;5.20;;;11.70;95.90;;;;;;5049484;28;20087;-88
2021/10/05 06:47:21;;;;;;;6.93;5.15;;;11.70;95.90;;;;;;5073691;28;20017;-88
2021/10/05 06:49:52;;;;;;;9.95;6.47;;;11.70;96.30;;;;;;5077497;28;20020;-89
2021/10/05 06:52:27;;;;;;;;;;;11.70;95.90;;;;;;5052681;28;20053;-88
2021/10/05 06:54:52;;;;;;;10.15;5.57;;;11.70;96.00;;;;;;5034550;28;19959;-89
2021/10/05 06:57:18;;;;;;;8.52;5.85;;;11.70;96.00;;;;;;5017828;28;20030;-88
2021/10/05 06:59:44;;;;;;;7.75;5.22;;;11.70;96.10;;;;;;5017828;28;20033;-88
2021/10/05 07:02:09;;;;;;;11.13;5.70;;;11.70;96.00;;;;;;5017399;28;20033;-88
2021/10/05 07:04:35;;;;;;;9.55;5.70;;;11.80;96.10;;;;;;5018488;28;20021;-89
2021/10/05 07:07:01;;;;;;;8.45;5.68;;;11.80;96.10;;;;;;5015393;28;20026;-84
2021/10/05 07:09:26;;;;;;;8.25;5.53;;;11.80;96.20;;;;;;5034000;28;20025;-84
2021/10/05 07:11:52;;;;;;;7.30;5.38;;;11.80;96.10;;;;;;5036037;28;20075;-84
2021/10/05 07:14:17;;;;;;;7.15;5.70;;;11.90;96.10;;;;;;5038488;28;20029;-84
2021/10/05 07:17:22;;;;;;;6.45;4.70;;;11.90;96.20;;;;;;5022189;28;20029;-84
2021/10/05 07:19:52;;;;;;;8.60;5.28;;;12.00;96.20;;;;;;5041907;28;20025;-84
2021/10/05 07:22:18;;;;;;;8.20;5.60;;;12.00;96.20;;;;;;5038742;28;20467;-84
2021/10/05 07:24:44;;;;;;;8.82;6.22;;;12.00;96.40;;;;;;5034607;28;20034;-84
2021/10/05 07:27:09;;;;;;;7.78;5.85;;;12.00;96.40;;;;;;5033025;28;20451;-84
2021/10/05 07:29:35;;;;;;;8.38;5.90;;;12.10;96.40;;;;;;5034025;28;20112;-85
2021/10/05 07:32:01;;;;;;;9.70;6.47;;;12.10;96.30;;;;;;5015850;28;20096;-85
2021/10/05 07:34:26;;;;;;;7.80;5.80;;;12.10;96.40;;;;;;5021799;28;20025;-84
2021/10/05 07:36:52;;;;;;;9.07;6.20;;;12.20;96.40;;;;;;5037657;28;20017;-84
2021/10/05 07:39:17;;;;;;;10.15;5.88;;;12.20;96.40;;;;;;5016535;28;20029;-84
2021/10/05 07:41:43;;;;;;;10.98;6.03;;;12.20;96.50;;;;;;5039847;28;20021;-84
2021/10/05 07:44:11;;;;;;;9.63;6.82;;;12.30;96.40;;;;;;5022498;28;20063;-85
2021/10/05 07:46:38;;;;;;;9.32;6.45;;;12.30;96.40;;;;;;5036808;28;20018;-84
2021/10/05 07:49:05;;;;;;;10.95;6.40;;;12.30;96.30;;;;;;5030656;28;20025;-84
2021/10/05 07:51:33;;;;;;;9.25;6.10;;;12.30;96.30;;;;;;5053085;22;20018;-84
2021/10/05 07:53:58;;;;;;;8.18;5.90;;;12.30;96.30;;;;;;5015259;28;20045;-84
2021/10/05 07:56:25;;;;;;;7.78;5.78;;;12.30;96.30;;;;;;5013952;28;20028;-84
2021/10/05 07:58:50;;;;;;;7.65;5.75;;;12.30;96.30;;;;;;5002310;28;20040;-84
2021/10/05 08:01:16;;;;;;;7.75;5.63;;;12.40;96.40;;;;;;4996516;28;20482;-84
2021/10/05 08:03:41;;;;;;;11.35;6.18;;;12.40;96.60;;;;;;5014685;28;20116;-84
2021/10/05 08:06:07;;;;;;;7.82;5.70;;;12.50;96.60;;;;;;5002396;28;20113;-84
2021/10/05 08:08:33;;;;;;;10.43;6.57;;;12.50;96.50;;;;;;5004836;28;20020;-84
2021/10/05 08:10:59;;;;;;;8.10;5.40;;;12.50;96.40;;;;;;4983665;28;20093;-85
2021/10/05 08:13:24;;;;;;;9.43;5.90;;;12.60;96.40;;;;;;4996358;28;20091;-84
2021/10/05 08:15:51;;;;;;;8.38;5.80;;;12.70;96.40;;;;;;4995052;28;20088;-84
2021/10/05 08:18:16;;;;;;;8.68;5.65;;;12.70;96.40;;;;;;5009062;28;20071;-84
2021/10/05 08:20:43;;;;;;;7.85;4.90;;;12.80;96.40;;;;;;4998743;28;20665;-84
2021/10/05 08:23:08;;;;;;;9.65;5.57;;;12.80;96.30;;;;;;4999155;28;20034;-85
2021/10/05 08:25:34;;;;;;;11.30;5.65;;;12.90;96.20;;;;;;5017304;28;20026;-85
2021/10/05 08:28:00;;;;;;;8.68;5.20;;;12.90;95.90;;;;;;5010970;28;20030;-84
2021/10/05 08:30:26;;;;;;;8.43;4.85;;;13.00;96.00;;;;;;5003781;28;20047;-85
2021/10/05 08:32:52;;;;;;;7.30;4.68;;;13.00;95.90;;;;;;4998388;28;20037;-89
2021/10/05 08:35:18;;;;;;;7.65;4.82;;;13.10;96.00;;;;;;5013055;28;20553;-89
2021/10/05 08:37:44;;;;;;;6.78;4.63;;;13.20;96.00;;;;;;5013180;28;20031;-89
2021/10/05 08:40:12;;;;;;;8.35;4.88;;;13.20;96.00;;;;;;4999399;28;20021;-90
2021/10/05 08:42:38;;;;;;;8.52;4.35;;;13.30;96.00;;;;;;5007148;28;20057;-88
2021/10/05 08:45:06;;;;;;;7.85;4.32;;;13.40;95.60;;;;;;5043529;28;20025;-90
2021/10/05 08:47:32;;;;;;;10.32;3.95;;;13.40;95.40;;;;;;5004678;28;20026;-89
2021/10/05 08:49:59;;;;;;;7.55;3.53;;;13.50;95.50;;;;;;5017307;28;20025;-88
2021/10/05 08:52:25;;;;;;;7.00;3.90;;;13.60;95.40;;;;;;4988976;28;20495;-88
2021/10/05 08:54:52;;;;;;;5.43;3.60;;;13.70;95.30;;;;;;4989306;28;20486;-88
2021/10/05 08:57:17;;;;;;;5.15;3.08;;;13.80;95.40;;;;;;4990159;28;20041;-88
2021/10/05 08:59:43;;;;;;;5.38;3.15;;;13.90;95.40;;;;;;4994249;28;20022;-88
2021/10/05 09:02:12;;;;;;;5.53;3.47;;;13.90;95.20;;;;;;4992015;28;20029;-88
2021/10/05 09:04:38;;;;;;;6.72;3.30;;;14.00;94.90;;;;;;5014018;28;20024;-89
2021/10/05 09:07:24;;;;;;;4.45;2.90;;;14.10;94.80;;;;;;4998393;28;20021;-89
2021/10/05 09:09:57;;;;;;;3.30;2.40;;;14.20;94.50;;;;;;5018339;28;20029;-88
2021/10/05 09:12:31;;;;;;;5.57;3.08;;;14.30;94.90;;;;;;5013002;28;20116;-88
2021/10/05 09:14:59;;;;;;;5.72;2.80;;;14.40;94.80;;;;;;4997613;28;20396;-84
2021/10/05 09:17:28;;;;;;;4.53;2.63;;;14.40;94.50;;;;;;5035154;28;20033;-85
2021/10/05 09:19:55;;;;;;;5.13;2.53;;;14.60;94.60;;;;;;5017739;28;20111;-85
2021/10/05 09:22:25;;;;;;;5.93;2.95;;;14.60;93.90;;;;;;5011482;28;20047;-84
2021/10/05 09:24:55;;;;;;;5.57;2.50;;;14.70;94.20;;;;;;5015760;28;20075;-85
2021/10/05 09:27:21;;;;;;;4.40;2.20;;;14.80;93.90;;;;;;5031918;28;20476;-84
2021/10/05 09:29:49;;;;;;;5.75;2.45;;;15.00;93.90;;;;;;5049317;28;20036;-84
2021/10/05 09:32:21;;;;;;;7.47;2.33;;;15.10;93.90;;;;;;5014495;28;20450;-84
2021/10/05 09:34:51;;;;;;;3.75;2.00;;;15.20;94.00;;;;;;5033676;28;20025;-84
2021/10/05 09:37:26;;;;;;;4.57;2.28;;;15.30;93.70;;;;;;5017805;28;20040;-84
2021/10/05 09:39:57;;;;;;;3.85;2.30;;;15.40;93.20;;;;;;5012143;28;20080;-85
2021/10/05 09:42:31;;;;;;;3.47;1.75;;;15.50;93.30;;;;;;5009969;28;20033;-85
2021/10/05 09:45:13;;;;;;;4.45;2.10;;;15.60;93.10;;;;;;4998534;28;20057;-84
2021/10/05 09:47:39;;;;;;;4.53;1.95;;;15.70;93.00;;;;;;5007996;28;20022;-84
2021/10/05 09:50:18;;;;;;;4.07;2.05;;;15.80;93.20;;;;;;5017034;28;20397;-84
2021/10/05 09:52:51;;;;;;;3.63;1.75;;;16.00;92.70;;;;;;5021780;28;20046;-85
2021/10/05 09:55:25;;;;;;;4.78;1.90;;;16.10;92.40;;;;;;5028956;28;20109;-85
2021/10/05 09:57:52;;;;;;;7.43;2.47;;;16.20;92.30;;;;;;4997577;28;20132;-84
2021/10/05 10:00:20;;;;;;;4.80;1.77;;;16.30;92.00;;;;;;5017075;28;20044;-84
2021/10/05 10:02:45;;;;;;;4.30;1.60;;;16.40;92.00;;;;;;4993903;28;20053;-85
2021/10/05 10:05:17;;;;;;;4.65;2.15;;;16.50;91.50;;;;;;5041702;28;20091;-84
2021/10/05 10:07:45;;;;;;;5.43;1.77;;;16.60;91.30;;;;;;5030603;28;20017;-85
2021/10/05 10:10:23;;;;;;;4.20;1.67;;;16.70;91.00;;;;;;5037653;28;20029;-84
2021/10/05 10:12:54;;;;;;;3.95;1.80;;;16.80;91.30;;;;;;5011140;28;20033;-84
2021/10/05 10:15:24;;;;;;;4.95;1.60;;;16.90;90.70;;;;;;5007778;28;20125;-84
2021/10/05 10:17:50;;;;;;;4.80;1.30;;;16.90;90.60;;;;;;5007302;28;20044;-84
2021/10/05 10:20:26;;;;;;;4.88;1.70;;;17.10;90.30;;;;;;4999261;28;20030;-85
2021/10/05 10:22:53;;;;;;;3.35;1.65;;;17.20;90.80;;;;;;5028534;28;20026;-84
2021/10/05 10:25:24;;;;;;;4.78;1.52;;;17.20;89.60;;;;;;5016584;28;20049;-85
2021/10/05 10:27:52;;;;;;;5.97;1.55;;;17.30;89.50;;;;;;5016714;28;20021;-85
2021/10/05 10:30:19;;;;;;;6.93;1.85;;;17.40;89.40;;;;;;5011012;28;20515;-85
2021/10/05 10:32:52;;;;;;;5.70;2.03;;;17.50;90.10;;;;;;5030340;28;20099;-85
2021/10/05 10:35:19;;;;;;;3.53;1.40;;;17.60;88.00;;;;;;5006539;28;20026;-85
2021/10/05 10:37:47;;;;;;;5.70;1.73;;;17.70;88.80;;;;;;4998749;28;20080;-85
2021/10/05 10:40:16;;;;;;;2.78;1.30;;;17.80;87.10;;;;;;5008186;28;20026;-86
2021/10/05 10:42:42;;;;;;;5.03;1.60;;;17.90;88.20;;;;;;5000623;28;20039;-85
2021/10/05 10:45:16;;;;;;;5.05;1.92;;;18.00;87.70;;;;;;5047184;28;20052;-85
2021/10/05 10:47:44;;;;;;;3.03;1.67;;;18.00;87.00;;;;;;5032570;28;20023;-85
2021/10/05 10:50:15;;;;;;;4.43;1.42;;;18.10;86.40;;;;;;5044422;28;20021;-85
2021/10/05 10:52:45;;;;;;;4.68;1.63;;;18.20;86.70;;;;;;5027998;28;20097;-84
2021/10/05 10:55:14;;;;;;;4.55;1.70;;;18.20;85.00;;;;;;5026108;28;20024;-86
2021/10/05 10:57:44;;;;;;;3.78;1.23;;;18.20;85.60;;;;;;5046980;28;20116;-83
2021/10/05 11:00:29;;;;;;;5.65;1.50;;;18.20;86.10;;;;;;5018127;28;20422;-84
2021/10/05 11:03:25;;;;;;;3.72;1.38;;;18.20;86.10;;;;;;5036165;28;20509;-84
2021/10/05 11:05:51;;;;;;;3.92;1.55;;;18.30;86.10;;;;;;5036913;28;20458;-84
2021/10/05 11:08:16;;;;;;;3.22;1.65;;;18.30;85.00;;;;;;5009656;28;20078;-85
2021/10/05 11:10:42;;;;;;;5.25;1.88;;;18.40;84.80;;;;;;5031508;28;20032;-85
2021/10/05 11:13:08;;;;;;;5.57;1.30;;;18.50;85.00;;;;;;5006384;28;20041;-85
2021/10/05 11:15:40;;;;;;;4.47;1.50;;;18.50;83.90;;;;;;5019727;28;20048;-85
2021/10/05 11:18:16;;;;;;;4.68;1.52;;;18.50;83.90;;;;;;5029847;28;20044;-87
2021/10/05 11:20:48;;;;;;;4.68;1.40;;;18.50;82.70;;;;;;5007756;28;20048;-85
2021/10/05 11:23:18;;;;;;;3.15;1.50;;;18.50;83.30;;;;;;5022261;28;20076;-84
2021/10/05 11:25:46;;;;;;;5.18;1.52;;;18.50;83.30;;;;;;5015080;28;20060;-84
2021/10/05 11:28:13;;;;;;;6.47;1.50;;;18.50;84.00;;;;;;5041339;28;20482;-84
2021/10/05 11:30:48;;;;;;;3.75;1.77;;;18.50;84.10;;;;;;5033814;28;20025;-83
2021/10/05 11:33:24;;;;;;;4.43;1.40;;;18.50;83.10;;;;;;5024735;28;20025;-84
2021/10/05 11:35:50;;;;;;;4.65;1.60;;;18.50;83.70;;;;;;5026480;28;20029;-85
2021/10/05 11:38:16;;;;;;;4.00;1.83;;;18.50;83.90;;;;;;5030486;28;20021;-84
2021/10/05 11:40:57;;;;;;;4.70;1.60;;;18.60;83.90;;;;;;5029751;28;20035;-85
2021/10/05 11:43:38;;;;;;;5.88;1.50;;;18.60;83.10;;;;;;5014764;28;20018;-85
2021/10/05 11:46:21;;;;;;;3.78;1.52;;;18.60;84.00;;;;;;5022163;28;20532;-84
2021/10/05 11:48:52;;;;;;;4.00;1.30;;;18.70;83.90;;;;;;5028617;28;20045;-84
2021/10/05 11:51:19;;;;;;;;;;;18.70;83.90;;;;;;5018958;28;20470;-84
2021/10/05 11:53:46;;;;;;;3.00;1.50;;;18.70;84.50;;;;;;5015768;28;19917;-84
2021/10/05 11:56:17;;;;;;;4.93;1.50;;;18.70;82.80;;;;;;5029756;28;20129;-85
2021/10/05 11:58:54;;;;;;;3.25;1.33;;;18.80;84.00;;;;;;5024579;28;20028;-85
2021/10/05 12:01:28;;;;;;;3.55;1.70;;;18.80;83.60;;;;;;5043515;28;20108;-85
2021/10/05 12:03:58;;;;;;;3.65;1.67;;;18.80;83.40;;;;;;5020526;28;20116;-85
2021/10/05 12:06:34;;;;;;;5.07;1.87;;;18.80;82.40;;;;;;5014886;28;20028;-85
2021/10/05 12:09:01;;;;;;;4.35;1.48;;;18.80;82.30;;;;;;5017615;28;20269;-84
2021/10/05 12:11:41;;;;;;;3.17;1.25;;;18.80;82.60;;;;;;4993271;28;20441;-85
2021/10/05 12:14:57;;;;;;;5.05;1.30;;;18.80;82.50;;;;;;5000516;28;20331;-85
2021/10/05 12:17:24;;;;;;;3.80;1.60;;;18.80;83.50;;;;;;4999010;28;20550;-85
2021/10/05 12:19:51;;;;;;;3.60;1.40;;;18.80;83.00;;;;;;5000644;28;20030;-85
2021/10/05 12:22:37;;;;;;;5.30;1.25;;;18.90;83.70;;;;;;5034098;28;20458;-85
2021/10/05 12:25:21;;;;;;;4.53;1.52;;;18.90;83.20;;;;;;5022131;28;20424;-85
2021/10/05 12:27:49;;;;;;;3.08;1.48;;;18.80;82.70;;;;;;5009590;28;20428;-84
2021/10/05 12:30:18;;;;;;;3.08;1.42;;;18.80;82.90;;;;;;5018163;28;20033;-84
2021/10/05 12:32:48;;;;;;;4.18;1.27;;;18.70;83.00;;;;;;5007603;28;20117;-84
2021/10/05 12:35:40;;;;;;;3.97;1.30;;;18.70;82.70;;;;;;5032057;28;20070;-85
2021/10/05 12:38:22;;;;;;;3.85;1.55;;;18.80;83.20;;;;;;4994818;28;20038;-85
2021/10/05 12:40:51;;;;;;;3.22;1.52;;;18.70;83.30;;;;;;5029491;28;20025;-85
2021/10/05 12:43:20;;;;;;;1.92;1.20;;;18.80;83.80;;;;;;5006863;28;20377;-84
2021/10/05 12:45:54;;;;;;;4.90;1.05;;;18.80;84.30;;;;;;5032117;28;20010;-84
2021/10/05 12:48:37;;;;;;;2.95;1.30;;;18.80;84.00;;;;;;5014510;28;20124;-85
2021/10/05 12:51:25;;;;;;;2.85;1.02;;;18.80;83.60;;;;;;5000595;28;20036;-84
2021/10/05 12:53:55;;;;;;;2.75;1.05;;;18.80;83.90;;;;;;5000094;28;20108;-85
2021/10/05 12:56:25;;;;;;;2.20;0.83;;;18.80;85.00;;;;;;4999684;28;20028;-84
2021/10/05 12:58:52;;;;;;;4.07;0.98;;;18.70;85.20;;;;;;4999415;28;20021;-86
2021/10/05 13:01:18;;;;;;;2.13;0.93;;;18.50;86.70;;;;;;5027833;28;20116;-85
2021/10/05 13:03:44;;;;;;;4.57;0.90;;;18.40;88.30;;;;;;5018138;28;20451;-84
2021/10/05 13:06:14;;;;;;;2.28;0.95;;;18.40;88.90;;;;;;5010780;28;20053;-86
2021/10/05 13:08:40;;;;;;;4.00;1.13;;;18.30;90.00;;;;;;5018109;28;20014;-84
2021/10/05 13:11:06;;;;;;;5.47;1.45;;;18.30;89.40;;;;;;5033049;28;20321;-85